Time;durP1;ratioP1;P1;durP2;ratioP2;P2;SDS_P1;SDS_P2;PMS_P1;PMS_P2;Temp;Humidity;BMP_temperature;BMP_pressure;BME280_temperature;BME280_humidity;BME280_pressure;Samples;Min_cycle;Max_cycle;Signal;HPM_P1;HPM_P2
2021/10/10 00:00:13;;;;;;;29.23;12.52;;;;;;;7.43;73.69;97163.63;5048996;28;20049;-74
2021/10/10 00:02:40;;;;;;;22.77;12.35;;;;;;;7.45;73.39;97161.44;5063952;28;20052;-74
2021/10/10 00:05:08;;;;;;;24.77;12.02;;;;;;;7.47;73.68;97153.84;5068446;28;20053;-74
2021/10/10 00:07:35;;;;;;;23.10;13.18;;;;;;;7.51;73.18;97156.78;5070134;28;20044;-74
2021/10/10 00:10:01;;;;;;;26.52;13.82;;;;;;;7.54;72.76;97157.06;5069269;28;20063;-73
2021/10/10 00:12:28;;;;;;;25.45;12.98;;;;;;;7.54;72.56;97153.53;5049515;28;20040;-74
2021/10/10 00:14:54;;;;;;;22.63;12.57;;;;;;;7.50;72.64;97158.69;5049542;28;20500;-74
2021/10/10 00:17:21;;;;;;;25.77;13.07;;;;;;;7.47;72.49;97156.56;5048997;28;20055;-74
2021/10/10 00:19:47;;;;;;;22.77;12.95;;;;;;;7.46;73.14;97154.09;5049480;28;20053;-74
2021/10/10 00:22:15;;;;;;;26.95;14.55;;;;;;;7.50;72.15;97149.75;5048488;28;20044;-74
2021/10/10 00:24:42;;;;;;;25.08;12.10;;;;;;;7.42;72.31;97147.66;5049896;28;20048;-75
2021/10/10 00:27:08;;;;;;;23.83;11.50;;;;;;;7.39;72.60;97149.00;5048170;28;20049;-73
2021/10/10 00:29:34;;;;;;;24.73;13.18;;;;;;;7.42;72.33;97153.88;5049287;28;20052;-74
2021/10/10 00:32:02;;;;;;;27.15;12.85;;;;;;;7.41;72.12;97146.81;5056892;28;20059;-74
2021/10/10 00:34:29;;;;;;;23.55;12.77;;;;;;;7.39;71.89;97149.00;5068567;28;20044;-74
2021/10/10 00:36:55;;;;;;;26.38;13.32;;;;;;;7.35;72.50;97152.53;5068709;28;20053;-74
2021/10/10 00:39:23;;;;;;;23.83;13.35;;;;;;;7.36;72.17;97149.56;5067767;28;20056;-74
2021/10/10 00:41:49;;;;;;;22.17;12.07;;;;;;;7.31;71.91;97146.88;5068622;28;20499;-74
2021/10/10 00:44:16;;;;;;;22.85;12.25;;;;;;;7.27;71.73;97146.63;5067406;28;20576;-74
2021/10/10 00:46:42;;;;;;;22.63;12.27;;;;;;;7.24;71.68;97146.34;5068955;28;20079;-74
2021/10/10 00:49:09;;;;;;;28.33;13.10;;;;;;;7.17;72.25;97151.25;5067276;28;20057;-73
2021/10/10 00:51:37;;;;;;;26.83;12.35;;;;;;;7.13;72.37;97150.19;5069205;28;20044;-75
2021/10/10 00:54:05;;;;;;;28.65;13.18;;;;;;;7.05;72.90;97144.25;5067255;28;20044;-74
2021/10/10 00:56:36;;;;;;;25.48;12.68;;;;;;;7.02;73.16;97149.41;5069325;28;20051;-74
2021/10/10 00:59:05;;;;;;;22.88;13.77;;;;;;;7.00;73.70;97149.69;5067365;28;20056;-75
2021/10/10 01:01:31;;;;;;;25.75;13.25;;;;;;;6.96;73.31;97145.91;5068409;28;20044;-74
2021/10/10 01:03:58;;;;;;;23.15;12.90;;;;;;;6.92;73.26;97146.72;5068457;28;20052;-74
2021/10/10 01:06:25;;;;;;;22.23;13.77;;;;;;;6.90;73.45;97151.63;5067636;28;20060;-74
2021/10/10 01:08:51;;;;;;;23.50;13.45;;;;;;;6.89;73.82;97149.97;5068789;28;20075;-74
2021/10/10 01:11:19;;;;;;;22.52;14.15;;;;;;;6.88;73.77;97154.59;5067318;28;20056;-74
2021/10/10 01:13:47;;;;;;;23.60;13.45;;;;;;;6.85;73.32;97149.72;5068720;28;20079;-74
2021/10/10 01:16:15;;;;;;;29.98;14.18;;;;;;;6.86;73.66;97148.63;5067302;28;20056;-74
2021/10/10 01:18:42;;;;;;;23.05;13.50;;;;;;;6.89;73.63;97147.25;5068599;28;20045;-73
2021/10/10 01:21:09;;;;;;;30.35;13.13;;;;;;;6.89;73.31;97147.25;5068267;28;20131;-73
2021/10/10 01:23:36;;;;;;;23.30;13.40;;;;;;;6.87;73.08;97144.84;5068276;28;20049;-74
2021/10/10 01:26:02;;;;;;;32.03;13.55;;;;;;;6.88;72.34;97153.78;5067910;28;20055;-73
2021/10/10 01:28:29;;;;;;;29.10;14.10;;;;;;;6.81;72.70;97137.81;5067527;28;20048;-74
2021/10/10 01:30:55;;;;;;;27.77;14.00;;;;;;;6.80;73.10;97147.84;5068372;28;20067;-74
2021/10/10 01:33:22;;;;;;;27.38;13.43;;;;;;;6.79;72.17;97142.72;5066796;28;20048;-74
2021/10/10 01:35:48;;;;;;;22.75;13.23;;;;;;;6.71;72.35;97143.25;5068549;28;20411;-74
2021/10/10 01:38:18;;;;;;;23.35;12.90;;;;;;;6.65;72.02;97144.34;5066858;28;20047;-73
2021/10/10 01:40:45;;;;;;;24.80;13.65;;;;;;;6.53;72.56;97141.94;5068205;28;20060;-74
2021/10/10 01:43:13;;;;;;;23.40;12.55;;;;;;;6.48;72.30;97140.06;5067048;28;20052;-74
2021/10/10 01:45:40;;;;;;;24.00;12.30;;;;;;;6.46;72.63;97142.19;5067899;28;20052;-73
2021/10/10 01:48:06;;;;;;;22.92;12.25;;;;;;;6.40;72.17;97135.19;5065719;28;20407;-74
2021/10/10 01:50:33;;;;;;;18.45;11.50;;;;;;;6.34;72.37;97138.97;5066183;28;20135;-74
2021/10/10 01:53:00;;;;;;;21.10;11.98;;;;;;;6.25;72.97;97130.59;5067853;28;20076;-74
2021/10/10 01:55:28;;;;;;;23.35;13.20;;;;;;;6.18;73.08;97131.94;5066562;28;20040;-73
2021/10/10 01:57:55;;;;;;;20.27;12.55;;;;;;;6.07;73.23;97130.31;5067979;28;20048;-72
2021/10/10 02:00:21;;;;;;;22.48;13.27;;;;;;;6.03;73.54;97126.53;5066534;28;20427;-76
2021/10/10 02:02:47;;;;;;;19.17;12.38;;;;;;;5.99;73.59;97132.47;5067943;28;20057;-74
2021/10/10 02:05:14;;;;;;;23.85;13.68;;;;;;;6.00;73.03;97125.16;5066488;28;20048;-73
2021/10/10 02:07:41;;;;;;;21.70;13.15;;;;;;;5.96;73.27;97124.91;5067275;28;20044;-73
2021/10/10 02:10:11;;;;;;;26.83;13.65;;;;;;;5.92;73.52;97126.53;5066340;28;20512;-73
2021/10/10 02:12:39;;;;;;;27.15;13.60;;;;;;;5.89;73.83;97120.81;5067021;28;20052;-73
2021/10/10 02:15:07;;;;;;;24.42;13.15;;;;;;;5.91;74.11;97119.50;5066634;28;20060;-73
2021/10/10 02:17:34;;;;;;;24.80;12.98;;;;;;;5.90;73.84;97117.00;5066608;28;20044;-73
2021/10/10 02:20:00;;;;;;;20.42;12.60;;;;;;;5.90;73.73;97117.84;5064393;28;20099;-73
2021/10/10 02:22:28;;;;;;;24.33;13.23;;;;;;;5.89;73.96;97110.81;5066291;28;20131;-76
2021/10/10 02:24:54;;;;;;;27.95;13.57;;;;;;;5.86;73.81;97111.34;5067491;28;20051;-73
2021/10/10 02:27:21;;;;;;;23.33;13.20;;;;;;;5.84;73.38;97118.91;5066120;28;20063;-73
2021/10/10 02:29:49;;;;;;;21.58;12.38;;;;;;;5.76;74.20;97119.44;5067221;28;20051;-74
2021/10/10 02:32:15;;;;;;;25.65;13.05;;;;;;;5.74;73.82;97121.59;5066458;28;20495;-74
2021/10/10 02:34:42;;;;;;;28.92;14.18;;;;;;;5.73;74.00;97117.28;5066709;28;20055;-74
2021/10/10 02:37:09;;;;;;;29.52;14.02;;;;;;;5.69;74.23;97117.03;5066483;28;20057;-74
2021/10/10 02:39:36;;;;;;;27.92;14.43;;;;;;;5.69;74.68;97124.28;5066426;28;20571;-74
2021/10/10 02:42:03;;;;;;;24.50;14.70;;;;;;;5.67;75.24;97118.34;5066649;28;20059;-74
2021/10/10 02:44:29;;;;;;;28.98;15.23;;;;;;;5.69;74.71;97129.69;5065996;28;20048;-74
2021/10/10 02:46:57;;;;;;;29.23;15.55;;;;;;;5.64;75.07;97129.72;5067390;28;20172;-74
2021/10/10 02:49:24;;;;;;;28.75;15.43;;;;;;;5.63;75.29;97128.06;5065396;28;20048;-74
2021/10/10 02:51:50;;;;;;;29.05;15.00;;;;;;;5.68;75.17;97122.66;5067121;28;20392;-74
2021/10/10 02:54:17;;;;;;;28.23;15.05;;;;;;;5.65;75.83;97117.81;5065552;28;20041;-74
2021/10/10 02:56:43;;;;;;;25.92;14.38;;;;;;;5.66;74.97;97117.53;5067518;28;20049;-74
2021/10/10 02:59:10;;;;;;;24.80;14.27;;;;;;;5.69;74.71;97110.78;5066690;28;20087;-73
2021/10/10 03:01:36;;;;;;;28.23;15.20;;;;;;;5.71;74.58;97111.34;5066669;28;20048;-74
2021/10/10 03:04:04;;;;;;;29.00;15.80;;;;;;;5.67;75.21;97107.53;5066110;28;20048;-73
2021/10/10 03:06:31;;;;;;;27.25;15.45;;;;;;;5.61;75.18;97111.31;5066062;28;20047;-73
2021/10/10 03:08:58;;;;;;;29.02;14.52;;;;;;;5.63;75.29;97118.06;5066856;28;20056;-74
2021/10/10 03:11:24;;;;;;;28.05;15.13;;;;;;;5.63;75.29;97106.44;5065610;28;20048;-74
2021/10/10 03:13:51;;;;;;;30.55;15.23;;;;;;;5.63;75.71;97106.44;5066891;28;20052;-74
2021/10/10 03:16:17;;;;;;;32.50;15.65;;;;;;;5.63;75.85;97104.56;5065651;28;20064;-74
2021/10/10 03:18:44;;;;;;;26.95;14.63;;;;;;;5.64;75.83;97103.50;5066303;28;20044;-73
2021/10/10 03:21:11;;;;;;;26.45;15.02;;;;;;;5.67;75.81;97097.53;5066087;28;20045;-73
2021/10/10 03:23:38;;;;;;;26.67;14.73;;;;;;;5.70;75.54;97098.91;5068496;28;20045;-74
2021/10/10 03:26:04;;;;;;;26.95;15.20;;;;;;;5.68;75.79;97098.34;5069985;28;20056;-73
2021/10/10 03:28:31;;;;;;;28.48;14.48;;;;;;;5.70;75.27;97091.63;5069526;28;20055;-74
2021/10/10 03:30:58;;;;;;;28.10;14.95;;;;;;;5.71;75.53;97095.13;5070269;28;20056;-74
2021/10/10 03:33:24;;;;;;;26.00;14.82;;;;;;;5.67;75.38;97092.13;5068684;28;20454;-73
2021/10/10 03:35:51;;;;;;;27.70;14.50;;;;;;;5.68;75.66;97087.53;5070444;28;20044;-74
2021/10/10 03:38:19;;;;;;;28.80;14.68;;;;;;;5.67;75.92;97083.22;5068680;28;20063;-74
2021/10/10 03:40:45;;;;;;;25.05;14.18;;;;;;;5.69;75.91;97084.59;5070224;28;20530;-74
2021/10/10 03:43:12;;;;;;;26.50;14.73;;;;;;;5.69;75.77;97090.00;5068794;28;20063;-74
2021/10/10 03:45:38;;;;;;;26.00;13.88;;;;;;;5.71;75.34;97082.41;5069785;28;20506;-73
2021/10/10 03:48:05;;;;;;;22.48;13.93;;;;;;;5.72;74.85;97088.63;5068946;28;20044;-74
2021/10/10 03:50:32;;;;;;;22.38;14.00;;;;;;;5.74;74.64;97078.34;5069336;28;20411;-73
2021/10/10 03:52:58;;;;;;;30.98;14.02;;;;;;;5.71;74.76;97085.13;5069635;28;20056;-74
2021/10/10 03:55:36;;;;;;;23.95;14.02;;;;;;;5.73;74.71;97077.53;5068641;28;20072;-74
2021/10/10 03:58:04;;;;;;;26.40;13.85;;;;;;;5.70;74.91;97085.41;5069599;28;20048;-72
2021/10/10 04:00:32;;;;;;;24.60;14.10;;;;;;;5.66;75.36;97085.13;5068807;28;20040;-74
2021/10/10 04:03:02;;;;;;;23.25;13.88;;;;;;;5.65;75.34;97088.09;5069581;28;20052;-74
2021/10/10 04:05:39;;;;;;;24.92;13.93;;;;;;;5.62;75.82;97083.22;5068596;28;20048;-74
2021/10/10 04:08:06;;;;;;;26.35;14.45;;;;;;;5.63;75.75;97080.22;5068674;28;20054;-73
2021/10/10 04:10:34;;;;;;;24.88;14.90;;;;;;;5.64;75.55;97075.66;5069152;28;20580;-73
2021/10/10 04:13:01;;;;;;;24.67;14.38;;;;;;;5.63;75.29;97074.84;5068691;28;20451;-73
2021/10/10 04:15:27;;;;;;;27.48;13.25;;;;;;;5.64;74.74;97075.66;5069114;28;20400;-73
2021/10/10 04:17:54;;;;;;;24.30;14.50;;;;;;;5.62;74.75;97075.09;5068589;28;20059;-74
2021/10/10 04:20:20;;;;;;;25.08;13.75;;;;;;;5.61;74.22;97077.00;5068566;28;20056;-73
2021/10/10 04:22:47;;;;;;;28.85;13.48;;;;;;;5.62;73.75;97080.50;5068596;28;20052;-73
2021/10/10 04:25:15;;;;;;;25.00;13.98;;;;;;;5.58;73.74;97074.81;5068486;28;20043;-74
2021/10/10 04:27:43;;;;;;;25.23;13.63;;;;;;;5.56;74.10;97084.28;5068605;28;20044;-73
2021/10/10 04:30:12;;;;;;;26.17;12.93;;;;;;;5.53;74.31;97076.72;5068241;28;20052;-74
2021/10/10 04:32:39;;;;;;;26.63;13.88;;;;;;;5.54;73.75;97075.66;5068944;28;20054;-74
2021/10/10 04:35:06;;;;;;;23.90;12.95;;;;;;;5.49;73.93;97079.97;5067725;28;20055;-74
2021/10/10 04:37:33;;;;;;;22.27;12.75;;;;;;;5.45;73.71;97068.06;5068968;28;20051;-74
2021/10/10 04:39:59;;;;;;;24.20;14.07;;;;;;;5.38;74.40;97072.94;5067660;28;20392;-73
2021/10/10 04:42:26;;;;;;;28.42;13.82;;;;;;;5.31;75.06;97077.75;5068746;28;20056;-74
2021/10/10 04:44:54;;;;;;;25.13;13.30;;;;;;;5.24;75.83;97077.19;5067638;28;20503;-73
2021/10/10 04:47:20;;;;;;;25.15;13.93;;;;;;;5.21;75.79;97083.13;5068306;28;20063;-74
2021/10/10 04:49:47;;;;;;;27.92;14.50;;;;;;;5.20;74.51;97087.72;5067728;28;20052;-74
2021/10/10 04:52:13;;;;;;;29.67;13.63;;;;;;;5.14;74.93;97087.97;5068090;28;20533;-73
2021/10/10 04:54:40;;;;;;;22.95;13.18;;;;;;;5.12;75.13;97084.72;5068030;28;20083;-74
2021/10/10 04:57:06;;;;;;;27.40;14.20;;;;;;;5.12;74.91;97079.34;5068081;28;20056;-75
2021/10/10 04:59:33;;;;;;;22.02;12.85;;;;;;;5.11;74.88;97088.50;5068331;28;20048;-74
2021/10/10 05:02:00;;;;;;;23.77;13.02;;;;;;;5.09;74.27;97090.66;5067734;28;20048;-74
2021/10/10 05:04:27;;;;;;;27.33;13.35;;;;;;;5.05;74.88;97084.97;5068127;28;20044;-74
2021/10/10 05:06:53;;;;;;;23.08;13.45;;;;;;;5.04;73.99;97087.94;5067172;28;20063;-73
2021/10/10 05:09:20;;;;;;;25.25;13.55;;;;;;;4.98;73.91;97096.00;5067924;28;20051;-74
2021/10/10 05:11:46;;;;;;;23.75;12.32;;;;;;;4.95;73.52;97095.72;5067308;28;20527;-74
2021/10/10 05:14:13;;;;;;;27.15;13.40;;;;;;;4.88;73.76;97087.88;5067561;28;20083;-73
2021/10/10 05:16:39;;;;;;;26.00;12.95;;;;;;;4.88;73.57;97095.97;5067568;28;20060;-73
2021/10/10 05:19:07;;;;;;;21.88;13.27;;;;;;;4.82;74.19;97102.41;5066701;28;20060;-73
2021/10/10 05:21:34;;;;;;;22.73;12.82;;;;;;;4.80;74.31;97099.16;5067910;28;20041;-73
2021/10/10 05:24:00;;;;;;;24.98;13.23;;;;;;;4.78;74.24;97101.31;5067215;28;20647;-74
2021/10/10 05:26:27;;;;;;;24.23;13.02;;;;;;;4.78;74.24;97105.91;5067803;28;20514;-73
2021/10/10 05:28:53;;;;;;;24.00;13.15;;;;;;;4.74;74.38;97105.59;5066905;28;20702;-74
2021/10/10 05:31:20;;;;;;;22.30;12.93;;;;;;;4.74;74.52;97104.78;5067831;28;20506;-74
2021/10/10 05:33:46;;;;;;;25.92;13.60;;;;;;;4.72;74.24;97110.47;5066921;28;20530;-73
2021/10/10 05:36:14;;;;;;;24.20;14.10;;;;;;;4.66;74.94;97109.63;5067484;28;20060;-73
2021/10/10 05:38:40;;;;;;;22.02;13.80;;;;;;;4.66;75.93;97111.50;5067256;28;20044;-74
2021/10/10 05:41:07;;;;;;;27.45;13.70;;;;;;;4.64;76.06;97111.75;5067480;28;20055;-72
2021/10/10 05:43:34;;;;;;;22.88;13.73;;;;;;;4.63;75.91;97112.84;5067637;28;20044;-73
2021/10/10 05:46:00;;;;;;;29.73;14.88;;;;;;;4.65;75.45;97118.78;5066933;28;20049;-74
2021/10/10 05:48:27;;;;;;;23.02;13.98;;;;;;;4.69;75.31;97124.47;5067144;28;20048;-73
2021/10/10 05:50:53;;;;;;;24.80;14.38;;;;;;;4.71;74.82;97114.25;5068149;28;20044;-73
2021/10/10 05:53:21;;;;;;;24.23;13.65;;;;;;;4.72;74.44;97118.56;5067467;28;20053;-73
2021/10/10 05:55:47;;;;;;;24.15;12.85;;;;;;;4.65;74.58;97118.00;5067849;28;20194;-74
2021/10/10 05:58:17;;;;;;;23.35;12.70;;;;;;;4.59;75.22;97119.00;5067240;28;20059;-74
2021/10/10 06:00:43;;;;;;;29.20;14.77;;;;;;;4.57;75.57;97126.56;5066815;28;20070;-73
2021/10/10 06:03:10;;;;;;;25.20;12.85;;;;;;;4.57;75.72;97126.56;5066814;28;20071;-73
2021/10/10 06:05:36;;;;;;;25.13;13.23;;;;;;;4.56;75.85;97124.94;5067088;28;20056;-73
2021/10/10 06:08:03;;;;;;;27.58;13.30;;;;;;;4.57;75.38;97127.38;5066650;28;20044;-73
2021/10/10 06:10:31;;;;;;;27.23;13.38;;;;;;;4.59;75.42;97129.78;5067549;28;20052;-73
2021/10/10 06:12:58;;;;;;;26.77;13.40;;;;;;;4.60;75.55;97126.03;5066892;28;20052;-73
2021/10/10 06:15:25;;;;;;;23.77;13.57;;;;;;;4.64;75.79;97132.53;5067391;28;20048;-73
2021/10/10 06:17:51;;;;;;;25.52;13.60;;;;;;;4.68;75.81;97128.22;5066541;28;20056;-73
2021/10/10 06:20:18;;;;;;;24.92;12.85;;;;;;;4.73;75.87;97133.66;5066935;28;20047;-74
2021/10/10 06:22:44;;;;;;;24.08;13.48;;;;;;;4.75;75.80;97136.94;5066488;28;20499;-74
2021/10/10 06:25:11;;;;;;;26.98;15.00;;;;;;;4.80;75.84;97126.13;5066818;28;20051;-73
2021/10/10 06:27:39;;;;;;;25.13;13.75;;;;;;;4.87;75.93;97131.31;5066801;28;20041;-73
2021/10/10 06:30:06;;;;;;;28.75;15.07;;;;;;;4.90;75.86;97131.59;5066712;28;20051;-74
2021/10/10 06:32:33;;;;;;;28.88;14.05;;;;;;;4.94;76.03;97127.28;5066989;28;20052;-73
2021/10/10 06:34:59;;;;;;;23.65;13.18;;;;;;;5.00;76.40;97135.41;5066729;28;20053;-73
2021/10/10 06:37:25;;;;;;;25.98;14.10;;;;;;;5.05;76.17;97138.94;5067033;28;20492;-74
2021/10/10 06:39:52;;;;;;;24.52;14.60;;;;;;;5.07;76.35;97136.00;5066294;28;20063;-74
2021/10/10 06:42:19;;;;;;;23.65;14.13;;;;;;;5.06;76.35;97134.34;5067215;28;20048;-74
2021/10/10 06:44:46;;;;;;;27.05;16.23;;;;;;;5.12;76.96;97133.34;5066398;28;20582;-74
2021/10/10 06:47:13;;;;;;;25.13;14.38;;;;;;;5.24;77.02;97125.81;5066970;28;20040;-74
2021/10/10 06:49:40;;;;;;;24.92;13.88;;;;;;;5.29;76.90;97127.72;5066321;28;20048;-73
2021/10/10 06:52:07;;;;;;;23.35;13.85;;;;;;;5.42;76.99;97130.72;5066945;28;20114;-73
2021/10/10 06:54:33;;;;;;;27.23;15.30;;;;;;;5.50;77.07;97130.22;5067237;28;20052;-74
2021/10/10 06:57:00;;;;;;;24.38;14.73;;;;;;;5.60;77.00;97134.00;5067674;28;20044;-74
2021/10/10 06:59:27;;;;;;;30.45;14.15;;;;;;;5.67;76.72;97134.56;5070235;28;20044;-74
2021/10/10 07:01:54;;;;;;;26.85;14.18;;;;;;;5.78;76.61;97147.00;5070273;28;20052;-74
2021/10/10 07:04:21;;;;;;;25.33;14.18;;;;;;;5.88;76.26;97140.81;5070487;28;20060;-74
2021/10/10 07:06:48;;;;;;;23.58;13.80;;;;;;;6.04;75.58;97144.38;5070327;28;20052;-74
2021/10/10 07:09:14;;;;;;;24.10;13.90;;;;;;;6.09;75.15;97147.09;5070427;28;20055;-73
2021/10/10 07:11:40;;;;;;;23.33;13.95;;;;;;;6.24;74.74;97139.78;5070134;28;20045;-74
2021/10/10 07:14:07;;;;;;;23.05;13.48;;;;;;;6.35;74.52;97143.28;5070312;28;20056;-74
2021/10/10 07:16:34;;;;;;;22.52;12.98;;;;;;;6.63;73.87;97141.09;5070396;28;20431;-73
2021/10/10 07:19:03;;;;;;;23.63;12.63;;;;;;;6.90;71.61;97146.19;5070182;28;20060;-73
2021/10/10 07:21:54;;;;;;;20.05;12.38;;;;;;;6.97;71.04;97147.53;5070501;28;20044;-75
2021/10/10 07:27:05;;;;;;;21.08;11.30;;;;;;;7.16;69.05;97152.34;5070328;28;20066;-74
2021/10/10 07:29:31;;;;;;;20.67;11.48;;;;;;;7.17;69.96;97140.44;5070423;28;20044;-75
2021/10/10 07:31:58;;;;;;;20.25;10.70;;;;;;;7.12;66.94;97138.53;5070588;28;20056;-73
2021/10/10 07:34:26;;;;;;;20.05;12.10;;;;;;;7.15;67.81;97137.16;5069743;28;20044;-74
2021/10/10 07:36:52;;;;;;;21.23;11.98;;;;;;;7.24;68.87;97144.44;5070235;28;20060;-73
2021/10/10 07:39:19;;;;;;;23.17;11.73;;;;;;;7.26;65.95;97145.00;5069829;28;20052;-74
2021/10/10 07:41:45;;;;;;;23.58;11.93;;;;;;;7.33;66.86;97139.28;5069654;28;20044;-74
2021/10/10 07:44:13;;;;;;;21.73;10.93;;;;;;;7.41;66.72;97144.09;5069798;28;20566;-73
2021/10/10 07:46:41;;;;;;;23.20;11.23;;;;;;;7.49;66.81;97146.25;5069654;28;20133;-74
2021/10/10 07:49:09;;;;;;;20.58;11.23;;;;;;;7.59;66.15;97143.47;5067262;28;20049;-74
2021/10/10 07:51:38;;;;;;;20.58;10.50;;;;;;;7.64;66.01;97139.13;5069290;28;20512;-75
2021/10/10 07:54:06;;;;;;;21.42;11.80;;;;;;;7.81;66.54;97143.06;5069620;28;20541;-74
2021/10/10 07:56:33;;;;;;;20.50;10.52;;;;;;;8.11;63.79;97149.41;5069692;28;20053;-74
2021/10/10 07:58:59;;;;;;;19.80;10.77;;;;;;;8.69;62.50;97154.09;5070051;28;20052;-74
2021/10/10 08:01:26;;;;;;;17.98;10.20;;;;;;;9.49;59.51;97156.19;5069492;28;20071;-73
2021/10/10 08:03:52;;;;;;;20.33;9.25;;;;;;;9.83;57.89;97147.88;5069543;28;20056;-75
2021/10/10 08:06:19;;;;;;;19.13;10.45;;;;;;;9.94;58.36;97152.06;5069746;28;20044;-74
2021/10/10 08:08:47;;;;;;;17.83;10.20;;;;;;;10.03;57.22;97153.03;5068582;28;20507;-74
2021/10/10 08:11:13;;;;;;;17.42;9.77;;;;;;;10.07;57.69;97155.94;5069687;28;20063;-75
2021/10/10 08:13:40;;;;;;;17.10;10.57;;;;;;;10.04;57.83;97149.19;5069226;28;20682;-74
2021/10/10 08:16:06;;;;;;;15.82;9.60;;;;;;;10.02;57.89;97156.03;5069621;28;20048;-73
2021/10/10 08:18:33;;;;;;;19.88;9.77;;;;;;;9.89;56.85;97150.22;5066373;28;20496;-74
2021/10/10 08:20:59;;;;;;;18.35;9.82;;;;;;;9.75;57.69;97156.69;5069597;28;20049;-74
2021/10/10 08:23:26;;;;;;;14.95;10.07;;;;;;;9.79;58.43;97155.81;5068954;28;20041;-74
2021/10/10 08:25:54;;;;;;;20.58;9.88;;;;;;;9.82;57.32;97159.88;5069103;28;20423;-74
2021/10/10 08:28:20;;;;;;;20.15;11.00;;;;;;;9.80;57.27;97162.84;5069079;28;20048;-73
2021/10/10 08:30:49;;;;;;;16.83;10.23;;;;;;;9.78;57.52;97158.81;5068871;28;20131;-74
2021/10/10 08:33:15;;;;;;;19.55;10.35;;;;;;;9.71;57.69;97158.38;5069388;28;20045;-73
2021/10/10 08:35:42;;;;;;;17.95;10.40;;;;;;;9.70;58.66;97167.63;5068510;28;20052;-74
2021/10/10 08:38:08;;;;;;;23.40;11.48;;;;;;;9.65;58.64;97165.78;5069209;28;20048;-74
2021/10/10 08:40:35;;;;;;;19.88;10.77;;;;;;;9.66;60.12;97167.41;5068599;28;20048;-74
2021/10/10 08:43:06;;;;;;;19.27;10.75;;;;;;;9.93;57.85;97170.31;5069341;28;20043;-75
2021/10/10 08:45:33;;;;;;;18.88;11.18;;;;;;;10.25;58.03;97163.34;5068792;28;20051;-74
2021/10/10 08:48:00;;;;;;;16.85;10.43;;;;;;;10.41;57.40;97164.72;5069356;28;20055;-74
2021/10/10 08:50:29;;;;;;;19.95;11.23;;;;;;;10.32;56.32;97162.97;5057103;28;20052;-76
2021/10/10 08:52:58;;;;;;;18.95;10.73;;;;;;;10.24;55.71;97163.66;5048914;28;20048;-74
2021/10/10 08:55:26;;;;;;;21.85;11.05;;;;;;;10.11;56.86;97157.78;5048828;28;20045;-74
2021/10/10 08:57:53;;;;;;;18.92;10.00;;;;;;;10.05;57.30;97152.72;5048517;28;20076;-74
2021/10/10 09:00:26;;;;;;;21.65;11.02;;;;;;;10.05;57.90;97161.69;5049105;28;20037;-73
2021/10/10 09:02:52;;;;;;;20.75;11.45;;;;;;;10.06;56.46;97160.59;5048457;28;20057;-74
2021/10/10 09:05:19;;;;;;;19.75;10.63;;;;;;;10.10;57.06;97153.47;5048742;28;20072;-74
2021/10/10 09:07:48;;;;;;;22.42;11.65;;;;;;;10.08;57.18;97152.16;5048574;28;20061;-74
2021/10/10 09:10:21;;;;;;;16.45;10.40;;;;;;;10.03;56.94;97158.47;5047917;28;20072;-74
2021/10/10 09:12:48;;;;;;;18.67;10.68;;;;;;;10.15;57.43;97156.09;5048930;28;20508;-76
2021/10/10 09:15:18;;;;;;;17.45;10.32;;;;;;;10.20;57.80;97153.31;5047742;28;20053;-74
2021/10/10 09:17:57;;;;;;;20.30;10.50;;;;;;;10.20;57.61;97153.31;5049300;28;20053;-76
2021/10/10 09:20:33;;;;;;;17.38;10.40;;;;;;;10.28;57.94;97153.75;5045988;28;20518;-74
2021/10/10 09:23:00;;;;;;;16.38;10.80;;;;;;;10.31;57.60;97155.91;5048758;28;20053;-74
2021/10/10 09:25:27;;;;;;;18.55;11.02;;;;;;;10.32;57.71;97152.06;5047985;28;20045;-74
2021/10/10 09:27:54;;;;;;;21.42;11.45;;;;;;;10.39;57.72;97152.53;5048322;28;20087;-75
2021/10/10 09:30:22;;;;;;;23.58;11.75;;;;;;;10.43;56.81;97148.06;5047822;28;20057;-76
2021/10/10 09:32:54;;;;;;;21.75;11.00;;;;;;;10.39;57.00;97152.53;5062646;28;20052;-75
2021/10/10 09:35:30;;;;;;;19.85;10.73;;;;;;;10.49;57.46;97157.75;5068135;28;20647;-75
2021/10/10 09:38:05;;;;;;;19.08;10.63;;;;;;;10.47;55.94;97148.28;5066961;28;20052;-74
2021/10/10 09:40:33;;;;;;;18.55;10.75;;;;;;;10.52;56.47;97157.19;5048793;28;20463;-74
2021/10/10 09:43:02;;;;;;;18.33;10.45;;;;;;;10.56;55.25;97146.50;5047818;28;20055;-73
2021/10/10 09:45:31;;;;;;;19.00;10.52;;;;;;;10.57;56.02;97148.13;5048376;28;20523;-75
2021/10/10 09:48:01;;;;;;;21.52;12.18;;;;;;;10.63;55.70;97153.19;5047482;28;20052;-75
2021/10/10 09:50:31;;;;;;;16.00;9.98;;;;;;;10.79;55.72;97147.47;5058648;28;20479;-74
2021/10/10 09:53:02;;;;;;;18.80;11.05;;;;;;;10.91;56.80;97150.50;5067849;28;20446;-74
2021/10/10 09:55:30;;;;;;;27.15;11.95;;;;;;;11.03;56.19;97156.28;5055075;28;20056;-74
2021/10/10 09:57:57;;;;;;;17.00;11.38;;;;;;;11.18;56.21;97153.28;5048477;28;20052;-75
2021/10/10 10:00:25;;;;;;;18.90;10.35;;;;;;;11.20;55.72;97156.50;5046955;28;20424;-73
2021/10/10 10:02:52;;;;;;;19.90;10.80;;;;;;;11.30;55.36;97150.03;5048195;28;20048;-75
2021/10/10 10:05:26;;;;;;;21.95;10.82;;;;;;;11.41;55.24;97156.09;5047482;28;20053;-74
2021/10/10 10:07:55;;;;;;;16.52;9.85;;;;;;;11.45;54.69;97146.22;5047480;28;20056;-73
2021/10/10 10:10:25;;;;;;;19.25;10.13;;;;;;;11.49;53.96;97147.22;5046800;28;20769;-74
2021/10/10 10:12:52;;;;;;;17.45;10.30;;;;;;;11.55;53.33;97151.47;5047103;28;20095;-74
2021/10/10 10:15:19;;;;;;;22.75;10.82;;;;;;;11.62;54.14;97146.38;5047455;28;20412;-75
2021/10/10 10:17:47;;;;;;;22.13;10.98;;;;;;;11.67;53.07;97142.75;5046821;28;20056;-76
2021/10/10 10:20:15;;;;;;;29.40;10.20;;;;;;;11.76;53.23;97152.63;5047205;28;20057;-75
2021/10/10 10:22:42;;;;;;;17.17;10.48;;;;;;;11.78;53.25;97149.59;5046825;28;20045;-74
2021/10/10 10:25:10;;;;;;;24.17;11.27;;;;;;;11.85;53.88;97154.66;5047289;28;20056;-75
2021/10/10 10:27:37;;;;;;;17.80;9.80;;;;;;;11.81;53.00;97153.66;5047117;28;20049;-73
2021/10/10 10:30:06;;;;;;;21.48;10.68;;;;;;;11.83;52.89;97145.97;5047160;28;20045;-75
2021/10/10 10:32:34;;;;;;;21.77;9.93;;;;;;;11.88;53.87;97145.88;5047075;28;20072;-74
2021/10/10 10:35:03;;;;;;;18.13;10.27;;;;;;;11.96;55.16;97140.50;5047076;28;20642;-74
2021/10/10 10:37:52;;;;;;;25.02;11.10;;;;;;;11.95;53.39;97143.50;5047521;28;20033;-74
2021/10/10 10:40:39;;;;;;;19.08;10.27;;;;;;;11.98;54.56;97145.66;5042292;28;20060;-74
2021/10/10 10:43:07;;;;;;;20.85;10.73;;;;;;;11.98;52.73;97137.47;5046689;28;20055;-74
2021/10/10 10:45:36;;;;;;;18.88;10.23;;;;;;;11.94;52.07;97147.38;5046431;28;20053;-74
2021/10/10 10:48:05;;;;;;;28.70;10.95;;;;;;;11.87;50.48;97147.78;5045561;28;20053;-74
2021/10/10 10:50:34;;;;;;;20.60;9.23;;;;;;;11.90;51.73;97146.34;5044008;28;20056;-75
2021/10/10 10:53:02;;;;;;;18.55;9.88;;;;;;;11.85;52.67;97150.03;5044037;28;20052;-74
2021/10/10 10:55:31;;;;;;;18.27;9.63;;;;;;;11.86;51.28;97140.72;5046900;28;20480;-74
2021/10/10 10:58:00;;;;;;;23.10;9.70;;;;;;;11.85;52.33;97147.31;5046585;28;20426;-74
2021/10/10 11:00:30;;;;;;;29.98;10.07;;;;;;;11.93;52.62;97152.03;5047206;28;20527;-75
2021/10/10 11:03:18;;;;;;;18.73;9.18;;;;;;;11.88;48.41;97145.88;5046648;28;20063;-75
2021/10/10 11:05:47;;;;;;;16.77;9.82;;;;;;;11.80;50.67;97143.81;5047163;28;20633;-76
2021/10/10 11:08:47;;;;;;;16.63;9.02;;;;;;;11.81;50.87;97131.81;5046474;28;20102;-75
2021/10/10 11:11:23;;;;;;;22.30;9.50;;;;;;;11.88;52.53;97137.69;5023261;28;20061;-76
2021/10/10 11:13:53;;;;;;;22.92;9.48;;;;;;;11.96;51.04;97136.97;5024704;28;20045;-76
2021/10/10 11:16:21;;;;;;;18.60;8.93;;;;;;;12.01;50.48;97134.13;5035148;28;20456;-71
2021/10/10 11:18:50;;;;;;;19.15;8.93;;;;;;;12.04;50.71;97130.75;5047039;28;20045;-74
2021/10/10 11:21:18;;;;;;;22.80;9.57;;;;;;;12.13;51.98;97128.91;5044146;28;20056;-75
2021/10/10 11:23:50;;;;;;;16.10;9.05;;;;;;;12.26;51.13;97121.78;5046459;28;20052;-74
2021/10/10 11:26:17;;;;;;;14.65;8.27;;;;;;;12.30;50.21;97127.44;5045540;28;20049;-75
2021/10/10 11:28:45;;;;;;;16.92;9.18;;;;;;;12.40;49.52;97127.19;5046575;28;20048;-75